createdAt,value
2022-08-19T00:04:42.261Z,19.30
2022-08-19T00:09:44.774Z,21.55
2022-08-19T00:14:48.643Z,20.45
2022-08-19T00:24:53.592Z,20.98
2022-08-19T00:29:59.814Z,20.33
2022-08-19T00:35:05.476Z,21.38
2022-08-19T00:40:09.301Z,18.00
2022-08-19T00:50:21.566Z,20.50
2022-08-19T00:55:28.983Z,21.02
2022-08-19T01:00:33.608Z,20.33
2022-08-19T01:05:37.145Z,19.50
2022-08-19T01:10:46.647Z,21.33
2022-08-19T01:15:56.928Z,19.02
2022-08-19T01:21:04.456Z,21.30
2022-08-19T01:26:08.260Z,21.52
2022-08-19T01:31:26.414Z,22.45
2022-08-19T01:36:33.080Z,22.88
2022-08-19T01:41:38.674Z,23.40
2022-08-19T01:46:42.051Z,22.38
2022-08-19T01:51:44.619Z,22.98
2022-08-19T01:56:48.829Z,23.83
2022-08-19T02:01:51.405Z,22.88
2022-08-19T02:06:53.928Z,23.55
2022-08-19T02:11:57.989Z,23.42
2022-08-19T02:17:00.461Z,23.50
2022-08-19T02:22:03.115Z,22.90
2022-08-19T02:27:07.248Z,25.38
2022-08-19T02:32:09.950Z,25.02
2022-08-19T02:37:32.612Z,25.83
2022-08-19T02:42:39.217Z,25.77
2022-08-19T02:47:41.771Z,27.60
2022-08-19T02:52:44.251Z,28.05
2022-08-19T02:57:48.293Z,29.20
2022-08-19T03:02:50.755Z,24.92
2022-08-19T03:07:53.259Z,27.85
2022-08-19T03:12:57.119Z,25.83
2022-08-19T03:17:59.819Z,26.58
2022-08-19T03:23:02.892Z,27.52
2022-08-19T03:28:07.409Z,26.53
2022-08-19T03:33:11.302Z,28.73
2022-08-19T03:38:20.733Z,24.00
2022-08-19T03:43:24.597Z,28.88
2022-08-19T03:53:31.683Z,29.67
2022-08-19T03:58:35.539Z,30.23
2022-08-19T04:08:41.495Z,30.38
2022-08-19T04:13:45.662Z,32.28
2022-08-19T04:18:49.701Z,30.08
2022-08-19T04:23:53.496Z,31.80
2022-08-19T04:29:00.310Z,29.25
2022-08-19T04:34:04.901Z,29.90
2022-08-19T04:39:10.650Z,32.67
2022-08-19T04:44:15.169Z,30.98
2022-08-19T04:49:19.407Z,27.05
2022-08-19T04:54:37.157Z,25.50
2022-08-19T04:59:42.972Z,29.17
2022-08-19T05:04:45.434Z,28.77
2022-08-19T05:09:58.966Z,26.52
2022-08-19T05:15:06.914Z,25.50
2022-08-19T05:20:28.616Z,27.60
2022-08-19T05:25:31.260Z,26.85
2022-08-19T05:30:46.729Z,27.55
2022-08-19T05:35:53.555Z,27.83
2022-08-19T05:40:56.039Z,25.35
2022-08-19T05:46:00.285Z,27.45
2022-08-19T05:51:07.141Z,27.35
2022-08-19T05:56:11.538Z,25.23
2022-08-19T06:01:17.953Z,26.65
2022-08-19T06:06:21.407Z,27.05
2022-08-19T06:11:25.706Z,25.88
2022-08-19T06:16:32.542Z,25.95
2022-08-19T06:21:38.127Z,26.83
2022-08-19T06:31:56.193Z,25.17
2022-08-19T06:37:02.012Z,24.73
2022-08-19T06:42:10.327Z,24.10
2022-08-19T06:47:23.487Z,24.45
2022-08-19T06:52:27.840Z,22.45
2022-08-19T06:57:33.566Z,23.97
2022-08-19T07:02:38.517Z,23.45
2022-08-19T07:07:44.096Z,20.50
2022-08-19T07:12:51.264Z,22.30
2022-08-19T07:17:55.221Z,23.95
2022-08-19T07:22:58.241Z,20.92
2022-08-19T07:28:01.615Z,20.35
2022-08-19T07:33:05.647Z,19.63
2022-08-19T07:38:08.412Z,18.63
2022-08-19T07:43:14.231Z,19.02
2022-08-19T07:48:21.787Z,20.27
2022-08-19T07:58:26.845Z,18.30
2022-08-19T08:03:45.129Z,19.65
2022-08-19T08:09:05.175Z,17.52
2022-08-19T08:14:29.510Z,18.35
2022-08-19T08:19:35.158Z,16.97
2022-08-19T08:24:37.989Z,17.05
2022-08-19T08:29:43.060Z,16.15
2022-08-19T08:34:47.386Z,16.25
2022-08-19T08:39:55.372Z,14.82
2022-08-19T08:45:01.596Z,14.07
2022-08-19T08:50:09.646Z,14.32
2022-08-19T08:55:16.282Z,15.30
2022-08-19T09:00:25.058Z,11.98
2022-08-19T09:05:42.116Z,11.43
2022-08-19T09:10:55.475Z,12.47
2022-08-19T09:16:02.503Z,11.15
2022-08-19T09:21:07.010Z,10.48
2022-08-19T09:26:11.716Z,10.57
2022-08-19T09:31:15.974Z,11.18
2022-08-19T09:36:34.844Z,11.35
2022-08-19T09:41:38.039Z,12.35
2022-08-19T09:46:40.557Z,13.18
2022-08-19T09:51:46.880Z,12.50
2022-08-19T09:56:53.970Z,13.48
2022-08-19T10:01:56.955Z,14.57
2022-08-19T10:07:07.914Z,13.88
2022-08-19T10:12:12.769Z,13.95
2022-08-19T10:17:23.123Z,13.10
2022-08-19T10:22:31.672Z,12.48
2022-08-19T10:27:34.224Z,10.57
2022-08-19T10:32:38.378Z,10.13
2022-08-19T10:37:57.667Z,9.20
2022-08-19T10:43:04.787Z,9.35
2022-08-19T10:48:07.316Z,10.05
2022-08-19T10:53:20.974Z,10.05
2022-08-19T10:58:27.264Z,10.93
2022-08-19T11:03:30.787Z,11.07
2022-08-19T11:08:35.789Z,11.88
2022-08-19T11:13:41.768Z,12.32
2022-08-19T11:18:48.125Z,11.32
2022-08-19T11:23:54.914Z,11.65
2022-08-19T11:28:58.689Z,8.90
2022-08-19T11:34:06.433Z,10.02
2022-08-19T11:39:12.532Z,9.38
2022-08-19T11:44:16.177Z,9.13
2022-08-19T11:49:22.043Z,8.13
2022-08-19T11:54:26.383Z,7.30
2022-08-19T11:59:30.302Z,6.55
2022-08-19T12:04:32.825Z,6.47
2022-08-19T12:09:37.131Z,5.35
2022-08-19T12:14:45.677Z,4.80
2022-08-19T12:19:48.189Z,4.88
2022-08-19T12:24:54.276Z,5.45
2022-08-19T12:29:57.014Z,4.80
2022-08-19T12:34:59.538Z,4.60
2022-08-19T12:40:04.398Z,4.22
2022-08-19T12:45:07.780Z,4.43
2022-08-19T12:50:14.093Z,4.35
2022-08-19T12:55:19.541Z,4.05
2022-08-19T13:00:23.870Z,4.43
2022-08-19T13:05:31.165Z,4.55
2022-08-19T13:10:40.073Z,4.40
2022-08-19T13:15:49.265Z,5.30
2022-08-19T13:20:52.738Z,4.90
2022-08-19T13:26:00.974Z,5.63
2022-08-19T13:31:21.254Z,6.43
2022-08-19T13:36:23.765Z,5.55
2022-08-19T13:41:27.941Z,7.00
2022-08-19T13:46:31.542Z,8.05
2022-08-19T13:51:34.221Z,7.28
2022-08-19T13:56:42.768Z,8.50
2022-08-19T14:01:45.264Z,7.35
2022-08-19T14:06:49.640Z,8.18
2022-08-19T14:11:53.475Z,5.60
2022-08-19T14:21:59.059Z,4.88
2022-08-19T14:27:04.248Z,5.32
2022-08-19T14:32:08.089Z,5.22
2022-08-19T14:37:15.356Z,5.15
2022-08-19T14:47:21.677Z,6.57
2022-08-19T14:57:29.879Z,7.88
2022-08-19T15:07:37.677Z,7.10
2022-08-19T15:12:43.626Z,7.05
2022-08-19T15:17:47.375Z,8.05
2022-08-19T15:27:54.138Z,7.80
2022-08-19T15:32:58.467Z,6.32
2022-08-19T15:38:01.002Z,7.72
2022-08-19T15:43:04.827Z,7.72
2022-08-19T15:53:11.747Z,7.25
2022-08-19T15:58:33.670Z,7.45
2022-08-19T16:03:53.958Z,8.25
2022-08-19T16:08:58.654Z,8.15
2022-08-19T16:14:03.673Z,9.10
2022-08-19T16:19:11.861Z,9.18
2022-08-19T16:24:16.810Z,8.63
2022-08-19T16:29:33.808Z,9.07
2022-08-19T16:34:42.402Z,9.77
2022-08-19T16:39:45.729Z,8.85
2022-08-19T16:44:49.778Z,9.48
2022-08-19T16:49:55.212Z,9.18
2022-08-19T16:54:58.131Z,9.18
2022-08-19T17:00:05.122Z,9.48
2022-08-19T17:05:09.405Z,9.38
2022-08-19T17:10:11.982Z,9.02
2022-08-19T17:15:15.797Z,9.05
2022-08-19T17:25:21.023Z,9.15
2022-08-19T17:30:26.167Z,8.63
2022-08-19T17:35:28.724Z,8.38
2022-08-19T17:40:31.256Z,8.55
2022-08-19T17:45:36.419Z,9.20
2022-08-19T17:50:40.394Z,7.78
2022-08-19T17:55:42.903Z,8.88
2022-08-19T18:00:54.441Z,8.80
2022-08-19T18:05:58.605Z,8.45
2022-08-19T18:11:01.823Z,8.38
2022-08-19T18:16:06.951Z,8.27
2022-08-19T18:21:10.351Z,8.35
2022-08-19T18:26:12.974Z,9.23
2022-08-19T18:31:17.143Z,8.10
2022-08-19T18:36:37.381Z,8.63
2022-08-19T18:42:00.679Z,8.57
2022-08-19T18:47:22.430Z,8.70
2022-08-19T18:52:27.079Z,8.75
2022-08-19T18:57:29.580Z,7.90
2022-08-19T19:02:38.886Z,8.52
2022-08-19T19:07:41.737Z,8.75
2022-08-19T19:12:45.450Z,8.95
2022-08-19T19:17:50.059Z,8.00
2022-08-19T19:22:52.516Z,7.95
2022-08-19T19:27:58.556Z,8.05
2022-08-19T19:33:03.181Z,8.63
2022-08-19T19:38:08.445Z,8.27
2022-08-19T19:43:11.019Z,8.02
2022-08-19T19:48:16.758Z,8.15
2022-08-19T19:53:19.241Z,6.95
2022-08-19T19:58:22.755Z,6.95
2022-08-19T20:03:32.918Z,7.28
2022-08-19T20:13:55.679Z,7.45
2022-08-19T20:19:01.218Z,6.93
2022-08-19T20:24:09.145Z,6.68
2022-08-19T20:29:38.062Z,7.15
2022-08-19T20:34:38.079Z,7.30
2022-08-19T20:39:40.797Z,7.00
2022-08-19T20:44:43.335Z,7.65
2022-08-19T20:49:47.272Z,7.25
2022-08-19T20:59:52.226Z,7.90
2022-08-19T21:04:59.021Z,7.50
2022-08-19T21:10:02.872Z,7.65
2022-08-19T21:15:09.849Z,8.23
2022-08-19T21:20:13.766Z,8.00
2022-08-19T21:30:19.611Z,8.60
2022-08-19T21:35:24.191Z,9.32
2022-08-19T21:40:27.201Z,9.40
2022-08-19T21:45:30.142Z,8.90
2022-08-19T21:50:34.027Z,8.90
2022-08-19T21:55:36.521Z,8.30
2022-08-19T22:00:40.242Z,9.13
2022-08-19T22:05:44.434Z,9.82
2022-08-19T22:10:46.940Z,9.43
2022-08-19T22:15:51.874Z,10.43
2022-08-19T22:20:56.663Z,9.57
2022-08-19T22:25:59.381Z,9.10
2022-08-19T22:31:02.430Z,9.13
2022-08-19T22:36:08.498Z,9.38
2022-08-19T22:41:11.535Z,8.68
2022-08-19T22:46:17.350Z,8.87
2022-08-19T22:51:39.447Z,8.23
2022-08-19T22:56:43.352Z,9.68
2022-08-19T23:01:46.271Z,9.18
2022-08-19T23:06:52.857Z,9.02
2022-08-19T23:11:55.661Z,9.18
2022-08-19T23:16:59.185Z,8.60
2022-08-19T23:22:05.092Z,8.80
2022-08-19T23:27:30.280Z,8.43
2022-08-19T23:32:36.038Z,8.70
2022-08-19T23:37:39.813Z,8.63
2022-08-19T23:42:44.351Z,8.32
2022-08-19T23:47:47.485Z,7.93
2022-08-19T23:52:54.372Z,8.47
2022-08-19T23:57:57.495Z,8.52
